CPX441 Details

Departure: Salt Lake City International Airport (KSLC)
Arrival: Chicago/Rockford International Airport (KRFD) at N/A
Route: RUGGD1 OCS KURSE Q122 FOD BHAWK RFD
Notes:


Current Weather Information
KSLC 191554Z 17015KT 10SM FEW230 29/M01 A3003 RMK AO2 SLP106 T02941006 $
KRFD 191554Z 05007KT 10SM SCT033 OVC048 24/19 A3005 RMK AO2 SLP170 T02440189